Highlands Peak, California Weather observations

Data are for observation ending at time listed.
 Day   Time    Ave.   Ave.  Ave.  Vector   Max.   Stn.    Total    Solar   Ave.  
  of    of     Air    Rel.  Wind   Wind    Wind   Baro.  Precip.   Rad.    Soil  
Year   Day     Temp.  Hum.  Speed  Dir.    Gust   Pres.                    Temp. 
2017   (PST)    F      %     mph   deg.    mph     mb.     in.     W/m2     F   
------------------------------------------------------------------------------
  84   13:50   52.4    82    3.5   294      6.6   932.9    0.00     660    56.6
  84   14:00   52.3    78    3.8   270      9.3   932.8    0.00     937    57.0
  84   14:10   53.1    75    5.7   256      9.3   932.7    0.00     948    57.5
  84   14:20   54.2    77    4.4   230      8.0   932.7    0.00     822    58.0
  84   14:30   53.8    80    4.9   207      7.5   932.7    0.00     924    58.4
  84   14:40   52.7    83    4.1   220      7.5   932.8    0.00     654    58.7
  84   14:50   54.1    82    6.0   258      9.3   932.8    0.00     852    59.1
  84   15:00   52.8    84    3.0   282      6.9   932.7    0.00     591    59.3
  84   15:10   54.1    80    3.4   268      6.5   932.8    0.00     631    59.6
  84   15:20   53.2    83    3.5   166      7.2   932.6    0.00     639    59.9
  84   15:30   55.1    77    2.6   222      6.0   932.5    0.00     665    60.0
  84   15:40   55.6    73    3.8   264      8.6   932.4    0.00     643    60.3
  84   15:50   54.8    73    5.1   258      8.8   932.3    0.00     544    60.7
  84   16:00   55.0    71    5.2   258      9.3   932.2    0.00     498    61.0
  84   16:10   55.1    77    5.5   262      8.6   932.2    0.00     465    61.2
  84   16:20   54.3    79    3.2   261      7.4   932.2    0.00     431    61.3
  84   16:30   54.4    77    2.2   250      4.5   932.2    0.00     392    61.3
  84   16:40   54.0    77    3.1   258      6.2   932.2    0.00     339    61.5
  84   16:50   53.5    79    3.6   280      6.9   932.2    0.00     313    61.6
  84   17:00   52.9    80    2.2   266      5.3   932.2    0.00     273    61.6
  84   17:10   53.6    78    1.2   122      3.5   932.1    0.00     218    61.6
  84   17:20   53.2    78    1.2   340      3.7   932.2    0.00     180    61.6
  84   17:30   53.4    78    0.5    43      1.8   932.1    0.00      89    61.6
  84   17:40   51.1    79    1.8    29      4.0   932.0    0.00      48    61.6
  84   17:50   51.5    75    3.6   285      6.6   932.0    0.00      94    61.5
  84   18:00   51.1    85    1.9   227      5.0   932.1    0.00      70    61.5
  84   18:10   49.3    88    2.4    96      4.9   932.1    0.00      29    61.4
  84   18:20   48.4    89    2.8    87      3.7   932.0    0.00      25    61.2
  84   18:30   49.1    82    1.5    76      2.0   931.9    0.00       5    61.1
  84   18:40   49.9    75    1.3    58      2.4   931.9    0.00       1    61.0
  84   18:50   49.9    76    1.5   295      2.9   932.0    0.00       0    60.8
  84   19:00   49.3    77    2.0    26      3.7   932.1    0.00       0    60.7
  84   19:10   48.5    81    2.6    50      4.2   932.2    0.00       0    60.5
  84   19:20   47.9    84    4.0    38      4.8   932.2    0.00       0    60.3
  84   19:30   47.9    83    4.4    52      5.5   932.2    0.00       0    60.1
  84   19:40   48.7    79    3.0    49      3.9   932.2    0.00       0    59.9
  84   19:50   49.2    76    2.5    58      3.7   932.3    0.00       0    59.7
  84   20:00   49.4    74    4.0    31      6.4   932.4    0.00       0    59.5
  84   20:10   49.9    70    2.2    18      3.5   932.5    0.00       0    59.3
  84   20:20   50.5    70    2.3    54      3.1   932.5    0.00       0    59.1
  84   20:30   50.5    68    2.1    57      3.7   932.4    0.00       0    58.9
  84   20:40   50.3    68    2.4    81      3.7   932.4    0.00       0    58.7
  84   20:50   50.6    69    1.8   101      3.9   932.4    0.00       0    58.5
  84   21:00   50.5    68    0.8   257      2.6   932.5    0.00       0    58.4
  84   21:10   50.3    69    0.5   125      1.5   932.4    0.00       0    58.2
  84   21:20   50.2    71    1.0   204      1.8   932.3    0.00       0    58.0
  84   21:30   49.4    74    1.5   169      2.2   932.2    0.00       0    57.8
  84   21:40   49.4    73    1.8   217      2.7   932.1    0.00       0    57.7
  84   21:50   49.2    72    2.6   263      3.7   932.1    0.00       0    57.5
  84   22:00   48.6    75    2.7   284      4.0   932.1    0.00       0    57.3
  84   22:10   48.9    73    2.5   270      3.1   932.2    0.00       0    57.1
  84   22:20   49.1    72    1.3   271      2.4   932.1    0.00       0    56.9
  84   22:30   49.2    71    0.4    38      2.0   932.0    0.00       0    56.8
  84   22:40   49.2    72    2.3    66      3.2   931.9    0.00       0    56.6
  84   22:50   49.1    73    3.4    77      4.8   931.8    0.00       0    56.5
  84   23:00   49.2    72    5.2   103      6.9   931.8    0.00       0    56.2
  84   23:10   49.6    68    4.0    99      5.6   931.8    0.00       0    55.9
  84   23:20   49.8    69    2.4   220      3.1   931.8    0.00       0    55.9
  84   23:30   48.9    72    3.4   218      4.1   931.9    0.00       0    55.7
  84   23:40   47.7    77    3.7   190      4.9   931.9    0.00       0    55.7
  84   23:50   47.0    77    3.0   213      4.2   932.0    0.00       0    55.5
  85    0:00   47.8    73    1.2   247      2.0   932.0    0.00       0    55.4
  85    0:10   48.1    72    0.2   245      0.9   931.9    0.00       0    55.3
  85    0:20   48.1    73    0.7    13      2.6   931.9    0.00       0    55.2
  85    0:30   48.2    72    1.5   331      2.2   931.8    0.00       0    55.0
  85    0:40   48.1    73    1.8     7      2.6   931.7    0.00       0    54.9
  85    0:50   48.0    73    2.2    36      3.4   931.8    0.00       0    54.8
  85    1:00   47.9    74    1.6    13      2.3   931.8    0.00       0    54.7
  85    1:10   47.5    75    1.9     5      4.5   931.8    0.00       0    54.5
  85    1:20   46.9    76    3.7    50      5.2   931.7    0.00       0    54.4
  85    1:30   46.7    77    3.5    51      4.7   931.6    0.00       0    54.3
  85    1:40   47.9    73    1.1    98      3.4   931.6    0.00       0    54.2
  85    1:50   48.1    73    2.7   276      5.4   931.6    0.00       0    54.0
  85    2:00   46.6    79    3.6   301      5.6   931.7    0.00       0    53.9
  85    2:10   46.4    78    2.2     6      3.8   931.6    0.00       0    53.9
  85    2:20   46.7    77    3.3     3      4.1   931.5    0.00       0    53.8
  85    2:30   46.6    77    3.7    21      4.5   931.4    0.00       0    53.7
  85    2:40   46.7    76    2.9   350      3.8   931.3    0.00       0    53.5
  85    2:50   46.7    77    2.7   301      3.7   931.3    0.00       0    53.5
  85    3:00   46.0    79    3.5   352      5.0   931.2    0.00       0    53.4
  85    3:10   46.2    76    4.0    25      5.0   931.1    0.00       0    53.3
  85    3:20   46.2    76    4.6    42      5.2   931.0    0.00       0    53.2
  85    3:30   46.5    75    3.5    40      4.5   931.0    0.00       0    53.1
  85    3:40   47.1    72    2.8    44      4.2   930.9    0.00       0    53.0
  85    3:50   47.1    69    4.1    49      6.6   930.8    0.00       0    52.9
  85    4:00   47.2    70    2.2    49      3.3   930.5    0.00       0    52.8
  85    4:10   48.0    71    0.1   246      1.4   930.5    0.00       0    52.7
  85    4:20   47.9    72    2.4   259      3.4   930.5    0.00       0    52.6
  85    4:30   47.3    73    2.7   273      3.8   930.7    0.00       0    52.5
  85    4:40   47.1    74    1.9   293      3.0   930.7    0.00       0    52.5
  85    4:50   47.0    73    1.3    46      2.4   930.6    0.00       0    52.4
  85    5:00   47.2    70    1.2    33      1.8   930.7    0.00       0    52.3
  85    5:10   47.3    67    1.5    48      2.3   930.6    0.00       0    52.2
  85    5:20   47.3    65    0.9    34      2.6   930.6    0.00       0    52.2
  85    5:30   47.3    63    0.9    57      1.8   930.7    0.00       0    52.1
  85    5:40   47.1    68    1.4   237      2.6   930.9    0.00       0    52.0
  85    5:50   46.4    76    2.3   263      3.3   931.1    0.00       0    51.9
  85    6:00   46.1    78    0.4     7      2.6   931.0    0.00       1    51.9
  85    6:10   45.7    72    3.8    65      5.0   931.1    0.00       6    51.8
  85    6:20   45.2    68    5.0    48      6.1   931.1    0.00      16    51.7
  85    6:30   45.4    68    5.5    49      7.0   931.2    0.00      37    51.6
  85    6:40   46.2    66    4.4    40      6.1   931.4    0.00      50    51.5
  85    6:50   46.5    66    2.6    51      5.3   931.4    0.00      73    51.4
  85    7:00   47.2    67    2.1   263      3.9   931.6    0.00     121    51.4
  85    7:10   47.6    69    0.1   231      1.1   931.5    0.00      82    51.3
  85    7:20   47.8    65    0.0    77      0.7   931.5    0.00     100    51.3
  85    7:30   48.6    68    1.6    90      2.3   931.5    0.00     263    51.3
  85    7:40   49.5    66    1.6   290      3.7   931.7    0.00     176    51.2
  85    7:50   47.9    73    3.6   277      5.2   931.9    0.00     122    51.2
  85    8:00   47.6    76    0.9    74      3.1   931.7    0.00     232    51.2
  85    8:10   48.8    73    1.7    88      3.6   931.7    0.00     308    51.2
  85    8:20   49.9    71    0.7   104      2.6   931.8    0.00     284    51.3
  85    8:30   49.5    75    2.4   263      3.5   932.0    0.00     223    51.3
  85    8:40   49.0    75    0.9   253      2.8   932.0    0.00     357    51.4
  85    8:50   50.1    73    2.6   277      6.7   932.2    0.00     511    51.5
  85    9:00   50.1    73    3.1   258      5.3   932.4    0.00     484    51.5
  85    9:10   50.0    75    2.8   277      6.4   932.7    0.00     406    51.7
  85    9:20   50.8    70    3.1   267      6.6   932.8    0.00     589    51.8
  85    9:30   49.5    73    3.3   267      5.1   933.0    0.00     391    52.0
  85    9:40   50.3    75    2.3   276      3.7   933.0    0.00     409    52.2
  85    9:50   50.6    77    4.7   262      6.4   933.0    0.00     539    52.3
  85   10:00   49.9    76    1.8   295      4.9   932.9    0.00     605    52.5
  85   10:10   52.2    65    4.1   254      6.7   932.9    0.00     697    52.7
  85   10:20   51.8    69    5.1   253      7.5   933.1    0.00     548    53.0
  85   10:30   51.1    76    5.1   274      8.0   933.2    0.00     390    53.2
  85   10:40   50.4    74    3.4   277      5.8   933.4    0.00     381    53.4
  85   10:50   50.8    71    1.7   286      4.2   933.4    0.00     422    53.6
  85   11:00   51.0    73    3.9   256      5.8   933.5    0.00     424    53.8
  85   11:10   50.6    72    3.0   249      6.8   933.3    0.00     491    54.1
  85   11:20   50.6    77    2.7   256      7.1   933.3    0.00     539    54.2
  85   11:30   51.3    76    2.8   260      5.7   933.2    0.00     817    54.4
  85   11:40   52.7    71    3.6   260      7.4   933.2    0.00     766    54.6
  85   11:50   53.1    69    3.2   263      6.9   933.2    0.00     713    54.8
  85   12:00   52.8    67    2.9   258      6.4   933.2    0.00     715    55.1
  85   12:10   53.7    65    2.6   265      5.1   933.2    0.00     821    55.4
  85   12:20   54.0    64    3.7   272      7.2   933.2    0.00     669    55.6
  85   12:30   53.5    68    4.6   252      7.2   933.2    0.00     734    56.0
  85   12:40   53.4    69    6.9   256     10.4   933.2    0.00     879    56.3
  85   12:50   52.1    66    8.2   256     12.5   933.4    0.00     913    56.8
  85   13:00   51.0    68    7.2   264     10.9   933.4    0.00     911    57.0
  85   13:10   50.7    70    4.6   264      8.7   933.5    0.00     992    57.3
  85   13:20   52.1    66    4.2   270      8.8   933.5    0.00     997    57.5
  85   13:30   52.3    64    5.3   267      8.7   933.4    0.00     829    57.9
  85   13:40   53.0    63    5.0   261      9.3   933.3    0.00     746    58.2

Return to Highlands Peak graphs page.


Western Regional Climate Center,wrcc@dri.edu